Monday, June 25, 2018, 7:32 PM GMT
Back to Local

CYQB, Quebec, Que

Location: , , Canada Lat: 46.8
Local Time: 7:32 PM GMT (19:32 GMT) Lon: -71.383
Time Zone: GMT Elev: 229 ft

Show me the last for .
Show Coded

Time T Td Feel RH Dir Speed Gust Alt SLP Vis Weather Sky Remarks
2018-06-25 19:00 59 54 - 82 50° 16 - 30.06 30.06 30 FEW020 SCT045 BKN068 None
2018-06-25 18:19 59 52 - 77 70° 13 - 30.04 30.04 30 FEW026 BKN086 None
2018-06-25 18:00 59 50 - 72 60° 15 21 30.04 30.05 30 +TSRA FEW025 BKN047 BKN066CB None
2018-06-25 17:42 61 50 - 67 60° 18 24 30.03 30.03 30 -TSRA SCT046 BKN054CB None
2018-06-25 17:00 66 54 - 63 100° 6 - 30.00 30.01 30 BKN034 None
2018-06-25 16:00 64 52 - 63 Variable 3 - 30.00 30.01 30 SCT031 BKN042TCU None
2018-06-25 15:00 63 52 - 67 110° 7 - 30.00 30.01 30 SCT028 BKN090 None
2018-06-25 14:00 61 55 - 82 110° 7 - 29.99 30.00 30 VCSH BKN018 BKN100 None
2018-06-25 13:46 61 52 - 72 80° 7 - 29.99 29.99 30 VCSH BKN020 BKN090 None
2018-06-25 13:00 59 55 - 87 90° 8 - 29.97 29.98 30 BKN014 BKN080 None
2018-06-25 12:44 59 54 - 82 70° 8 - 29.97 29.98 30 BKN014 BKN100 None
2018-06-25 12:00 59 46 - 62 60° 5 - 29.95 29.96 30 SCT100 None
2018-06-25 11:00 54 45 - 71 350° 3 - 29.94 29.95 30 FEW090 BKN100 None
2018-06-25 10:00 52 45 - 76 360° 6 - 29.93 29.94 30 BKN100 None
2018-06-25 09:00 52 45 - 76 300° 3 - 29.91 29.92 20 BKN095 None
2018-06-25 08:00 50 46 - 87 Variable 2 - 29.90 29.90 15 SCT075 None
2018-06-25 07:00 52 52 - 100 220° 5 - 29.90 29.91 15 FEW085 SCT220 None
2018-06-25 06:00 52 52 - 100 - Calm - 29.91 29.91 15 SCT088 SCT220 None
2018-06-25 05:00 54 54 - 100 280° 2 - 29.91 29.91 15 SCT082 BKN200 None
2018-06-25 04:00 54 54 - 100 260° 2 - 29.91 29.92 15 SCT075 BKN160 None
2018-06-25 03:00 54 54 - 100 - Calm - 29.91 29.92 15 FEW035 BKN073 BKN140 None
2018-06-25 02:00 55 55 - 100 Variable 2 - 29.92 29.92 15 FEW020 SCT033 BKN100 None
2018-06-25 01:00 57 55 - 93 330° 3 - 29.90 29.91 15 FEW015 FEW025 BKN096 None
2018-06-25 00:00 57 54 - 87 20° 2 - 29.89 29.90 20 FEW015 SCT025 BKN095 OVC240 None
2018-06-24 23:41 57 55 - 93 50° 3 - 29.90 29.90 15 FEW015 SCT025 OVC100 None
2018-06-24 23:00 57 54 - 87 70° 7 - 29.89 29.90 10 -SHRA FEW015 SCT024 BKN045 OVC110 None
2018-06-24 22:00 57 55 - 93 80° 7 - 29.89 29.89 8 -SHRA FEW015 BKN045 OVC100 None
2018-06-24 21:00 59 54 - 82 80° 12 - 29.87 29.88 8 -SHRA FEW020 OVC043 None
2018-06-24 20:00 61 55 - 82 70° 9 - 29.86 29.86 10 -SHRA FEW020 BKN034 OVC150 None

Support USWX by starting your Amazon purchase here.